sensor_id;sensor_type;location;lat;lon;timestamp;temperature;humidity
2158;DHT22;41972;48.774;9.282;2022-12-11T00:02:01;-0.80;99.90
2158;DHT22;41972;48.774;9.282;2022-12-11T00:04:27;-0.60;99.90
2158;DHT22;41972;48.774;9.282;2022-12-11T00:06:52;-0.50;99.90
2158;DHT22;41972;48.774;9.282;2022-12-11T00:09:20;-0.40;99.90
2158;DHT22;41972;48.774;9.282;2022-12-11T00:11:46;-0.30;99.90
2158;DHT22;41972;48.774;9.282;2022-12-11T00:14:12;-0.70;99.90
2158;DHT22;41972;48.774;9.282;2022-12-11T00:16:38;-0.70;99.90
2158;DHT22;41972;48.774;9.282;2022-12-11T00:19:04;-0.90;99.90
2158;DHT22;41972;48.774;9.282;2022-12-11T00:21:30;-1.10;99.90
2158;DHT22;41972;48.774;9.282;2022-12-11T00:23:56;-1.00;99.90
2158;DHT22;41972;48.774;9.282;2022-12-11T00:26:21;-0.80;99.90
2158;DHT22;41972;48.774;9.282;2022-12-11T00:28:51;-0.70;99.90
2158;DHT22;41972;48.774;9.282;2022-12-11T00:31:18;-0.60;99.90
2158;DHT22;41972;48.774;9.282;2022-12-11T00:33:44;-0.50;99.90
2158;DHT22;41972;48.774;9.282;2022-12-11T00:36:14;-0.40;99.90
2158;DHT22;41972;48.774;9.282;2022-12-11T00:38:41;-0.40;99.90
2158;DHT22;41972;48.774;9.282;2022-12-11T00:41:08;-0.30;99.90
2158;DHT22;41972;48.774;9.282;2022-12-11T00:43:34;-0.30;99.90
2158;DHT22;41972;48.774;9.282;2022-12-11T00:46:00;-0.40;99.90
2158;DHT22;41972;48.774;9.282;2022-12-11T00:48:25;-0.70;99.90
2158;DHT22;41972;48.774;9.282;2022-12-11T00:50:51;-0.70;99.90
2158;DHT22;41972;48.774;9.282;2022-12-11T00:53:17;-0.80;99.90
2158;DHT22;41972;48.774;9.282;2022-12-11T00:55:42;-0.80;99.90
2158;DHT22;41972;48.774;9.282;2022-12-11T00:58:09;-0.80;99.90
2158;DHT22;41972;48.774;9.282;2022-12-11T01:00:35;-0.70;99.90
2158;DHT22;41972;48.774;9.282;2022-12-11T01:03:01;-0.70;99.90
2158;DHT22;41972;48.774;9.282;2022-12-11T01:05:27;-0.70;99.90
2158;DHT22;41972;48.774;9.282;2022-12-11T01:07:53;-0.70;99.90
2158;DHT22;41972;48.774;9.282;2022-12-11T01:10:18;-0.70;99.90
2158;DHT22;41972;48.774;9.282;2022-12-11T01:12:56;-0.70;99.90
2158;DHT22;41972;48.774;9.282;2022-12-11T01:15:26;-0.70;99.90
2158;DHT22;41972;48.774;9.282;2022-12-11T01:17:53;-0.60;99.90
2158;DHT22;41972;48.774;9.282;2022-12-11T01:20:19;-0.70;99.90
2158;DHT22;41972;48.774;9.282;2022-12-11T01:22:45;-0.70;99.90
2158;DHT22;41972;48.774;9.282;2022-12-11T01:25:11;-0.70;99.90
2158;DHT22;41972;48.774;9.282;2022-12-11T01:27:37;-0.60;99.90
2158;DHT22;41972;48.774;9.282;2022-12-11T01:30:05;-0.70;99.90
2158;DHT22;41972;48.774;9.282;2022-12-11T01:32:33;-0.70;99.90
2158;DHT22;41972;48.774;9.282;2022-12-11T01:34:59;-0.60;99.90
2158;DHT22;41972;48.774;9.282;2022-12-11T01:37:25;-0.60;99.90
2158;DHT22;41972;48.774;9.282;2022-12-11T01:39:50;-0.60;99.90
2158;DHT22;41972;48.774;9.282;2022-12-11T01:42:18;-0.50;99.90
2158;DHT22;41972;48.774;9.282;2022-12-11T01:47:10;-0.50;99.90
2158;DHT22;41972;48.774;9.282;2022-12-11T01:49:36;-0.60;99.90
2158;DHT22;41972;48.774;9.282;2022-12-11T01:52:18;-0.50;99.90
2158;DHT22;41972;48.774;9.282;2022-12-11T01:54:44;-0.40;99.90
2158;DHT22;41972;48.774;9.282;2022-12-11T01:57:11;-0.60;99.90
2158;DHT22;41972;48.774;9.282;2022-12-11T01:59:41;-0.60;99.90
2158;DHT22;41972;48.774;9.282;2022-12-11T02:02:14;-0.40;99.90
2158;DHT22;41972;48.774;9.282;2022-12-11T02:04:41;-0.30;99.90
2158;DHT22;41972;48.774;9.282;2022-12-11T02:07:08;-0.20;99.90
2158;DHT22;41972;48.774;9.282;2022-12-11T02:09:35;-0.30;99.90
2158;DHT22;41972;48.774;9.282;2022-12-11T02:15:00;-0.20;99.90
2158;DHT22;41972;48.774;9.282;2022-12-11T02:20:17;-0.20;99.90
2158;DHT22;41972;48.774;9.282;2022-12-11T02:28:33;-0.90;99.90
2158;DHT22;41972;48.774;9.282;2022-12-11T02:31:06;-0.80;99.90
2158;DHT22;41972;48.774;9.282;2022-12-11T02:33:50;-0.70;99.90
2158;DHT22;41972;48.774;9.282;2022-12-11T02:36:18;-0.50;99.90
2158;DHT22;41972;48.774;9.282;2022-12-11T02:38:49;-0.40;99.90
2158;DHT22;41972;48.774;9.282;2022-12-11T02:41:18;-0.30;99.90
2158;DHT22;41972;48.774;9.282;2022-12-11T02:43:45;-0.50;99.90
2158;DHT22;41972;48.774;9.282;2022-12-11T02:46:13;-0.70;99.90
2158;DHT22;41972;48.774;9.282;2022-12-11T02:48:40;-0.70;99.90
2158;DHT22;41972;48.774;9.282;2022-12-11T02:51:08;-0.50;99.90
2158;DHT22;41972;48.774;9.282;2022-12-11T02:53:36;-0.40;99.90
2158;DHT22;41972;48.774;9.282;2022-12-11T02:56:33;-0.40;99.90
2158;DHT22;41972;48.774;9.282;2022-12-11T02:59:06;-0.30;99.90
2158;DHT22;41972;48.774;9.282;2022-12-11T03:01:33;-0.50;99.90
2158;DHT22;41972;48.774;9.282;2022-12-11T03:03:59;-0.70;99.90
2158;DHT22;41972;48.774;9.282;2022-12-11T03:06:31;-0.60;99.90
2158;DHT22;41972;48.774;9.282;2022-12-11T03:08:58;-0.70;99.90
2158;DHT22;41972;48.774;9.282;2022-12-11T03:11:24;-0.70;99.90
2158;DHT22;41972;48.774;9.282;2022-12-11T03:13:50;-0.60;99.90
2158;DHT22;41972;48.774;9.282;2022-12-11T03:19:49;-0.50;99.90
2158;DHT22;41972;48.774;9.282;2022-12-11T03:22:02;-0.70;99.90
2158;DHT22;41972;48.774;9.282;2022-12-11T03:24:40;-0.90;99.90
2158;DHT22;41972;48.774;9.282;2022-12-11T03:29:55;-0.80;99.90
2158;DHT22;41972;48.774;9.282;2022-12-11T03:32:26;-0.80;99.90
2158;DHT22;41972;48.774;9.282;2022-12-11T03:35:06;-0.90;99.90
2158;DHT22;41972;48.774;9.282;2022-12-11T03:37:35;-1.00;99.90
2158;DHT22;41972;48.774;9.282;2022-12-11T03:40:07;-0.90;99.90
2158;DHT22;41972;48.774;9.282;2022-12-11T03:42:35;-0.80;99.90
2158;DHT22;41972;48.774;9.282;2022-12-11T03:45:02;-0.90;99.90
2158;DHT22;41972;48.774;9.282;2022-12-11T03:47:29;-0.80;99.90
2158;DHT22;41972;48.774;9.282;2022-12-11T03:49:57;-0.70;99.90
2158;DHT22;41972;48.774;9.282;2022-12-11T03:52:25;-0.70;99.90
2158;DHT22;41972;48.774;9.282;2022-12-11T03:54:53;-0.90;99.90
2158;DHT22;41972;48.774;9.282;2022-12-11T03:57:26;-0.90;99.90
2158;DHT22;41972;48.774;9.282;2022-12-11T03:59:52;-1.00;99.90
2158;DHT22;41972;48.774;9.282;2022-12-11T04:02:18;-1.00;99.90
2158;DHT22;41972;48.774;9.282;2022-12-11T04:04:43;-1.00;99.90
2158;DHT22;41972;48.774;9.282;2022-12-11T04:07:09;-0.90;99.90
2158;DHT22;41972;48.774;9.282;2022-12-11T04:09:35;-1.00;99.90
2158;DHT22;41972;48.774;9.282;2022-12-11T04:12:00;-1.00;99.90
2158;DHT22;41972;48.774;9.282;2022-12-11T04:14:26;-1.00;99.90
2158;DHT22;41972;48.774;9.282;2022-12-11T04:17:21;-0.90;99.90
2158;DHT22;41972;48.774;9.282;2022-12-11T04:20:05;-1.00;99.90
2158;DHT22;41972;48.774;9.282;2022-12-11T04:22:50;-1.00;99.90
2158;DHT22;41972;48.774;9.282;2022-12-11T04:25:34;-1.00;99.90
2158;DHT22;41972;48.774;9.282;2022-12-11T04:27:59;-1.10;99.90
2158;DHT22;41972;48.774;9.282;2022-12-11T04:30:25;-1.00;99.90
2158;DHT22;41972;48.774;9.282;2022-12-11T04:32:52;-1.10;99.90
2158;DHT22;41972;48.774;9.282;2022-12-11T04:35:18;-1.20;99.90
2158;DHT22;41972;48.774;9.282;2022-12-11T04:37:44;-1.10;99.90
2158;DHT22;41972;48.774;9.282;2022-12-11T04:40:12;-1.20;99.90
2158;DHT22;41972;48.774;9.282;2022-12-11T04:42:38;-1.30;99.90
2158;DHT22;41972;48.774;9.282;2022-12-11T04:45:05;-1.30;99.90
2158;DHT22;41972;48.774;9.282;2022-12-11T04:47:34;-1.20;99.90
2158;DHT22;41972;48.774;9.282;2022-12-11T04:50:00;-1.30;99.90
2158;DHT22;41972;48.774;9.282;2022-12-11T04:52:25;-1.10;99.90
2158;DHT22;41972;48.774;9.282;2022-12-11T04:54:51;-1.00;99.90
2158;DHT22;41972;48.774;9.282;2022-12-11T04:57:17;-0.90;99.90
2158;DHT22;41972;48.774;9.282;2022-12-11T04:59:42;-0.90;99.90
2158;DHT22;41972;48.774;9.282;2022-12-11T05:02:08;-0.80;99.90
2158;DHT22;41972;48.774;9.282;2022-12-11T05:04:34;-1.00;99.90
2158;DHT22;41972;48.774;9.282;2022-12-11T05:07:00;-1.20;99.90
2158;DHT22;41972;48.774;9.282;2022-12-11T05:09:27;-1.20;99.90
2158;DHT22;41972;48.774;9.282;2022-12-11T05:11:53;-1.10;99.90
2158;DHT22;41972;48.774;9.282;2022-12-11T05:14:19;-1.00;99.90
2158;DHT22;41972;48.774;9.282;2022-12-11T05:16:44;-0.90;99.90
2158;DHT22;41972;48.774;9.282;2022-12-11T05:19:10;-0.80;99.90
2158;DHT22;41972;48.774;9.282;2022-12-11T05:21:35;-0.80;99.90
2158;DHT22;41972;48.774;9.282;2022-12-11T05:24:01;-0.70;99.90
2158;DHT22;41972;48.774;9.282;2022-12-11T05:26:27;-1.10;99.90
2158;DHT22;41972;48.774;9.282;2022-12-11T05:28:54;-1.20;99.90
2158;DHT22;41972;48.774;9.282;2022-12-11T05:31:22;-1.30;99.90
2158;DHT22;41972;48.774;9.282;2022-12-11T05:33:48;-1.40;99.90
2158;DHT22;41972;48.774;9.282;2022-12-11T05:36:26;-1.50;99.90
2158;DHT22;41972;48.774;9.282;2022-12-11T05:38:54;-1.50;99.90
2158;DHT22;41972;48.774;9.282;2022-12-11T05:41:22;-1.40;99.90
2158;DHT22;41972;48.774;9.282;2022-12-11T05:43:48;-1.50;99.90
2158;DHT22;41972;48.774;9.282;2022-12-11T05:46:20;-1.50;99.90
2158;DHT22;41972;48.774;9.282;2022-12-11T05:48:48;-1.70;99.90
2158;DHT22;41972;48.774;9.282;2022-12-11T05:51:14;-2.00;99.90
2158;DHT22;41972;48.774;9.282;2022-12-11T05:53:42;-2.30;99.90
2158;DHT22;41972;48.774;9.282;2022-12-11T05:56:14;-2.50;99.90
2158;DHT22;41972;48.774;9.282;2022-12-11T05:58:41;-2.70;99.90
2158;DHT22;41972;48.774;9.282;2022-12-11T06:01:13;-2.70;99.90
2158;DHT22;41972;48.774;9.282;2022-12-11T06:03:39;-2.70;99.90
2158;DHT22;41972;48.774;9.282;2022-12-11T06:06:05;-2.70;99.90
2158;DHT22;41972;48.774;9.282;2022-12-11T06:08:31;-2.60;99.90
2158;DHT22;41972;48.774;9.282;2022-12-11T06:10:57;-2.60;99.90
2158;DHT22;41972;48.774;9.282;2022-12-11T06:13:23;-2.60;99.90
2158;DHT22;41972;48.774;9.282;2022-12-11T06:15:48;-2.60;99.90
2158;DHT22;41972;48.774;9.282;2022-12-11T06:18:14;-2.70;99.90
2158;DHT22;41972;48.774;9.282;2022-12-11T06:20:40;-2.60;99.90
2158;DHT22;41972;48.774;9.282;2022-12-11T06:23:05;-2.40;99.90
2158;DHT22;41972;48.774;9.282;2022-12-11T06:25:31;-2.30;99.90
2158;DHT22;41972;48.774;9.282;2022-12-11T06:27:58;-2.20;99.90
2158;DHT22;41972;48.774;9.282;2022-12-11T06:30:23;-2.20;99.90
2158;DHT22;41972;48.774;9.282;2022-12-11T06:32:49;-2.10;99.90
2158;DHT22;41972;48.774;9.282;2022-12-11T06:35:14;-2.30;99.90
2158;DHT22;41972;48.774;9.282;2022-12-11T06:37:40;-2.40;99.90
2158;DHT22;41972;48.774;9.282;2022-12-11T06:40:08;-2.60;99.90
2158;DHT22;41972;48.774;9.282;2022-12-11T06:42:34;-2.70;99.90
2158;DHT22;41972;48.774;9.282;2022-12-11T06:45:00;-2.90;99.90
2158;DHT22;41972;48.774;9.282;2022-12-11T06:47:26;-3.10;99.90
2158;DHT22;41972;48.774;9.282;2022-12-11T06:49:52;-3.20;99.90
2158;DHT22;41972;48.774;9.282;2022-12-11T06:52:18;-3.30;99.90
2158;DHT22;41972;48.774;9.282;2022-12-11T06:54:44;-3.30;99.90
2158;DHT22;41972;48.774;9.282;2022-12-11T06:57:10;-3.40;99.90
2158;DHT22;41972;48.774;9.282;2022-12-11T06:59:35;-3.40;99.90
2158;DHT22;41972;48.774;9.282;2022-12-11T07:02:02;-3.40;99.90
2158;DHT22;41972;48.774;9.282;2022-12-11T07:04:28;-3.40;99.90
2158;DHT22;41972;48.774;9.282;2022-12-11T07:06:55;-3.30;99.90
2158;DHT22;41972;48.774;9.282;2022-12-11T07:09:21;-3.20;99.90
2158;DHT22;41972;48.774;9.282;2022-12-11T07:11:49;-3.10;99.90
2158;DHT22;41972;48.774;9.282;2022-12-11T07:14:15;-2.90;99.90
2158;DHT22;41972;48.774;9.282;2022-12-11T07:16:40;-2.80;99.90
2158;DHT22;41972;48.774;9.282;2022-12-11T07:19:06;-2.70;99.90
2158;DHT22;41972;48.774;9.282;2022-12-11T07:21:32;-2.70;99.90
2158;DHT22;41972;48.774;9.282;2022-12-11T07:23:57;-2.50;99.90
2158;DHT22;41972;48.774;9.282;2022-12-11T07:26:23;-2.10;99.90
2158;DHT22;41972;48.774;9.282;2022-12-11T07:28:48;-1.90;99.90
2158;DHT22;41972;48.774;9.282;2022-12-11T07:31:17;-1.90;99.90
2158;DHT22;41972;48.774;9.282;2022-12-11T07:33:43;-1.80;99.90
2158;DHT22;41972;48.774;9.282;2022-12-11T07:36:11;-1.50;99.90
2158;DHT22;41972;48.774;9.282;2022-12-11T07:38:37;-1.30;99.90
2158;DHT22;41972;48.774;9.282;2022-12-11T07:41:07;-1.10;99.90
2158;DHT22;41972;48.774;9.282;2022-12-11T07:43:33;-1.10;99.90
2158;DHT22;41972;48.774;9.282;2022-12-11T07:46:12;-1.30;99.90
2158;DHT22;41972;48.774;9.282;2022-12-11T07:48:39;-1.50;99.90
2158;DHT22;41972;48.774;9.282;2022-12-11T07:51:11;-1.50;99.90
2158;DHT22;41972;48.774;9.282;2022-12-11T07:53:39;-1.60;99.90
2158;DHT22;41972;48.774;9.282;2022-12-11T07:56:05;-1.70;99.90
2158;DHT22;41972;48.774;9.282;2022-12-11T07:58:31;-1.70;99.90
2158;DHT22;41972;48.774;9.282;2022-12-11T08:00:57;-1.70;99.90
2158;DHT22;41972;48.774;9.282;2022-12-11T08:03:23;-1.50;99.90
2158;DHT22;41972;48.774;9.282;2022-12-11T08:05:50;-1.30;99.90
2158;DHT22;41972;48.774;9.282;2022-12-11T08:08:16;-0.90;99.90
2158;DHT22;41972;48.774;9.282;2022-12-11T08:10:41;-0.80;99.90
2158;DHT22;41972;48.774;9.282;2022-12-11T08:13:07;-0.50;99.90
2158;DHT22;41972;48.774;9.282;2022-12-11T08:15:32;-1.10;99.90
2158;DHT22;41972;48.774;9.282;2022-12-11T08:17:58;-1.10;99.90
2158;DHT22;41972;48.774;9.282;2022-12-11T08:20:24;-1.00;99.90
2158;DHT22;41972;48.774;9.282;2022-12-11T08:22:49;-0.80;99.90
2158;DHT22;41972;48.774;9.282;2022-12-11T08:25:15;-0.80;99.90
2158;DHT22;41972;48.774;9.282;2022-12-11T08:27:41;-0.80;99.90
2158;DHT22;41972;48.774;9.282;2022-12-11T08:30:07;-0.60;99.90
2158;DHT22;41972;48.774;9.282;2022-12-11T08:32:33;0.10;99.90
2158;DHT22;41972;48.774;9.282;2022-12-11T08:34:59;0.70;99.90
2158;DHT22;41972;48.774;9.282;2022-12-11T08:37:24;1.50;99.90
2158;DHT22;41972;48.774;9.282;2022-12-11T08:39:50;2.20;99.90
2158;DHT22;41972;48.774;9.282;2022-12-11T08:42:15;2.80;99.90
2158;DHT22;41972;48.774;9.282;2022-12-11T08:44:41;2.90;99.90
2158;DHT22;41972;48.774;9.282;2022-12-11T08:47:06;2.40;99.90
2158;DHT22;41972;48.774;9.282;2022-12-11T08:49:34;1.90;99.90
2158;DHT22;41972;48.774;9.282;2022-12-11T08:52:01;2.30;99.90
2158;DHT22;41972;48.774;9.282;2022-12-11T08:54:27;2.30;99.90
2158;DHT22;41972;48.774;9.282;2022-12-11T08:56:52;1.80;99.90
2158;DHT22;41972;48.774;9.282;2022-12-11T08:59:18;1.60;99.90
2158;DHT22;41972;48.774;9.282;2022-12-11T09:01:43;0.90;99.90
2158;DHT22;41972;48.774;9.282;2022-12-11T09:04:09;0.80;99.90
2158;DHT22;41972;48.774;9.282;2022-12-11T09:06:34;0.80;99.90
2158;DHT22;41972;48.774;9.282;2022-12-11T09:09:00;0.60;99.90
2158;DHT22;41972;48.774;9.282;2022-12-11T09:11:29;0.50;99.90
2158;DHT22;41972;48.774;9.282;2022-12-11T09:13:55;0.20;99.90
2158;DHT22;41972;48.774;9.282;2022-12-11T09:16:23;0.20;99.90
2158;DHT22;41972;48.774;9.282;2022-12-11T09:18:50;-0.50;99.90
2158;DHT22;41972;48.774;9.282;2022-12-11T09:21:18;-0.60;99.90
2158;DHT22;41972;48.774;9.282;2022-12-11T09:23:44;-0.30;99.90
2158;DHT22;41972;48.774;9.282;2022-12-11T09:26:13;-0.30;99.90
2158;DHT22;41972;48.774;9.282;2022-12-11T09:28:39;-0.20;99.90
2158;DHT22;41972;48.774;9.282;2022-12-11T09:31:26;0.20;99.90
2158;DHT22;41972;48.774;9.282;2022-12-11T09:33:58;0.40;99.90
2158;DHT22;41972;48.774;9.282;2022-12-11T09:36:24;0.40;99.90
2158;DHT22;41972;48.774;9.282;2022-12-11T09:38:51;0.00;99.90
2158;DHT22;41972;48.774;9.282;2022-12-11T09:46:44;-0.50;99.90
2158;DHT22;41972;48.774;9.282;2022-12-11T09:54:22;-0.60;99.90
2158;DHT22;41972;48.774;9.282;2022-12-11T09:56:59;-0.60;99.90
2158;DHT22;41972;48.774;9.282;2022-12-11T09:59:39;-0.70;99.90
2158;DHT22;41972;48.774;9.282;2022-12-11T10:07:47;-0.80;99.90
2158;DHT22;41972;48.774;9.282;2022-12-11T10:10:37;-0.80;99.90
2158;DHT22;41972;48.774;9.282;2022-12-11T10:16:45;-0.70;99.90
2158;DHT22;41972;48.774;9.282;2022-12-11T10:19:19;-0.50;99.90
2158;DHT22;41972;48.774;9.282;2022-12-11T10:21:47;-0.20;99.90
2158;DHT22;41972;48.774;9.282;2022-12-11T10:24:22;0.10;99.90
2158;DHT22;41972;48.774;9.282;2022-12-11T10:26:54;-0.40;99.90
2158;DHT22;41972;48.774;9.282;2022-12-11T10:29:20;-0.50;99.90
2158;DHT22;41972;48.774;9.282;2022-12-11T10:31:51;-0.60;99.90
2158;DHT22;41972;48.774;9.282;2022-12-11T10:34:27;-0.60;99.90
2158;DHT22;41972;48.774;9.282;2022-12-11T10:36:54;-0.40;99.90
2158;DHT22;41972;48.774;9.282;2022-12-11T10:39:21;-0.30;99.90
2158;DHT22;41972;48.774;9.282;2022-12-11T10:41:49;-0.20;99.90
2158;DHT22;41972;48.774;9.282;2022-12-11T10:44:18;0.20;99.90
2158;DHT22;41972;48.774;9.282;2022-12-11T10:46:45;0.30;99.90
2158;DHT22;41972;48.774;9.282;2022-12-11T10:49:26;-0.20;99.90
2158;DHT22;41972;48.774;9.282;2022-12-11T10:51:54;-0.30;99.90
2158;DHT22;41972;48.774;9.282;2022-12-11T10:54:30;-0.30;99.90
2158;DHT22;41972;48.774;9.282;2022-12-11T10:56:56;-0.40;99.90
2158;DHT22;41972;48.774;9.282;2022-12-11T10:59:36;0.00;99.90
2158;DHT22;41972;48.774;9.282;2022-12-11T11:02:04;0.00;99.90
2158;DHT22;41972;48.774;9.282;2022-12-11T11:04:35;-0.10;99.90
2158;DHT22;41972;48.774;9.282;2022-12-11T11:09:37;-0.30;99.90
2158;DHT22;41972;48.774;9.282;2022-12-11T11:12:26;-0.10;99.90
2158;DHT22;41972;48.774;9.282;2022-12-11T11:15:10;0.10;99.90
2158;DHT22;41972;48.774;9.282;2022-12-11T11:17:56;0.20;99.90
2158;DHT22;41972;48.774;9.282;2022-12-11T11:20:27;0.30;99.90
2158;DHT22;41972;48.774;9.282;2022-12-11T11:22:59;0.20;99.90
2158;DHT22;41972;48.774;9.282;2022-12-11T11:25:28;0.50;99.90
2158;DHT22;41972;48.774;9.282;2022-12-11T11:27:57;0.50;99.90
2158;DHT22;41972;48.774;9.282;2022-12-11T11:30:30;0.60;99.90
2158;DHT22;41972;48.774;9.282;2022-12-11T11:32:59;0.60;99.90
2158;DHT22;41972;48.774;9.282;2022-12-11T11:35:29;0.70;99.90
2158;DHT22;41972;48.774;9.282;2022-12-11T11:38:17;0.60;99.90
2158;DHT22;41972;48.774;9.282;2022-12-11T11:46:05;1.20;99.90
2158;DHT22;41972;48.774;9.282;2022-12-11T11:51:13;1.60;99.90
2158;DHT22;41972;48.774;9.282;2022-12-11T11:53:39;1.60;99.90
2158;DHT22;41972;48.774;9.282;2022-12-11T11:56:26;1.70;99.90
2158;DHT22;41972;48.774;9.282;2022-12-11T11:59:13;2.10;99.90
2158;DHT22;41972;48.774;9.282;2022-12-11T12:01:43;2.20;99.90
2158;DHT22;41972;48.774;9.282;2022-12-11T12:04:10;1.90;99.90
2158;DHT22;41972;48.774;9.282;2022-12-11T12:10:09;1.50;99.90
2158;DHT22;41972;48.774;9.282;2022-12-11T12:12:42;1.30;99.90
2158;DHT22;41972;48.774;9.282;2022-12-11T12:15:20;1.50;99.90
2158;DHT22;41972;48.774;9.282;2022-12-11T12:17:52;1.40;99.90
2158;DHT22;41972;48.774;9.282;2022-12-11T12:20:27;0.90;99.90
2158;DHT22;41972;48.774;9.282;2022-12-11T12:31:20;1.50;99.90
2158;DHT22;41972;48.774;9.282;2022-12-11T12:37:26;1.70;99.90
2158;DHT22;41972;48.774;9.282;2022-12-11T12:46:12;1.50;99.90
2158;DHT22;41972;48.774;9.282;2022-12-11T12:48:44;1.20;99.90
2158;DHT22;41972;48.774;9.282;2022-12-11T12:51:12;1.10;99.90
2158;DHT22;41972;48.774;9.282;2022-12-11T12:53:40;1.00;99.90
2158;DHT22;41972;48.774;9.282;2022-12-11T12:56:10;1.10;99.90
2158;DHT22;41972;48.774;9.282;2022-12-11T12:58:41;0.50;99.90
2158;DHT22;41972;48.774;9.282;2022-12-11T13:03:47;0.60;99.90
2158;DHT22;41972;48.774;9.282;2022-12-11T13:06:13;0.30;99.90
2158;DHT22;41972;48.774;9.282;2022-12-11T13:08:46;0.00;99.90
2158;DHT22;41972;48.774;9.282;2022-12-11T13:11:15;0.30;99.90
2158;DHT22;41972;48.774;9.282;2022-12-11T13:14:34;0.50;99.90
2158;DHT22;41972;48.774;9.282;2022-12-11T13:16:37;0.80;99.90
2158;DHT22;41972;48.774;9.282;2022-12-11T13:19:16;1.00;99.90
2158;DHT22;41972;48.774;9.282;2022-12-11T13:21:57;1.20;99.90
2158;DHT22;41972;48.774;9.282;2022-12-11T13:24:27;1.30;99.90
2158;DHT22;41972;48.774;9.282;2022-12-11T13:26:53;1.20;99.90
2158;DHT22;41972;48.774;9.282;2022-12-11T13:29:35;1.20;99.90
2158;DHT22;41972;48.774;9.282;2022-12-11T13:32:21;1.10;99.90
2158;DHT22;41972;48.774;9.282;2022-12-11T13:34:54;1.00;99.90
2158;DHT22;41972;48.774;9.282;2022-12-11T13:37:37;0.90;99.90
2158;DHT22;41972;48.774;9.282;2022-12-11T13:40:08;0.70;99.90
2158;DHT22;41972;48.774;9.282;2022-12-11T13:42:54;0.30;99.90
2158;DHT22;41972;48.774;9.282;2022-12-11T13:45:36;0.10;99.90
2158;DHT22;41972;48.774;9.282;2022-12-11T13:48:03;0.10;99.90
2158;DHT22;41972;48.774;9.282;2022-12-11T13:50:34;0.10;99.90
2158;DHT22;41972;48.774;9.282;2022-12-11T13:53:01;0.10;99.90
2158;DHT22;41972;48.774;9.282;2022-12-11T13:55:30;0.30;99.90
2158;DHT22;41972;48.774;9.282;2022-12-11T13:57:56;0.30;99.90
2158;DHT22;41972;48.774;9.282;2022-12-11T14:00:32;0.20;99.90
2158;DHT22;41972;48.774;9.282;2022-12-11T14:03:02;0.20;99.90
2158;DHT22;41972;48.774;9.282;2022-12-11T14:05:29;0.00;99.90
2158;DHT22;41972;48.774;9.282;2022-12-11T14:07:57;-0.20;99.90
2158;DHT22;41972;48.774;9.282;2022-12-11T14:10:26;-0.30;99.90
2158;DHT22;41972;48.774;9.282;2022-12-11T14:15:24;-0.30;99.90
2158;DHT22;41972;48.774;9.282;2022-12-11T14:17:50;-0.30;99.90
2158;DHT22;41972;48.774;9.282;2022-12-11T14:20:22;-0.20;99.90
2158;DHT22;41972;48.774;9.282;2022-12-11T14:22:48;-0.30;99.90
2158;DHT22;41972;48.774;9.282;2022-12-11T14:25:23;-0.30;99.90
2158;DHT22;41972;48.774;9.282;2022-12-11T14:27:54;-0.50;99.90
2158;DHT22;41972;48.774;9.282;2022-12-11T14:30:31;-0.50;99.90
2158;DHT22;41972;48.774;9.282;2022-12-11T14:32:59;-0.60;99.90
2158;DHT22;41972;48.774;9.282;2022-12-11T14:35:30;-0.70;99.90
2158;DHT22;41972;48.774;9.282;2022-12-11T14:38:03;-0.60;99.90
2158;DHT22;41972;48.774;9.282;2022-12-11T14:40:36;-0.70;99.90
2158;DHT22;41972;48.774;9.282;2022-12-11T14:43:09;-0.70;99.90
2158;DHT22;41972;48.774;9.282;2022-12-11T14:45:39;-0.70;99.90
2158;DHT22;41972;48.774;9.282;2022-12-11T14:48:14;-0.80;99.90
2158;DHT22;41972;48.774;9.282;2022-12-11T14:50:47;-0.80;99.90
2158;DHT22;41972;48.774;9.282;2022-12-11T14:53:23;-0.80;99.90
2158;DHT22;41972;48.774;9.282;2022-12-11T14:55:50;-0.90;99.90
2158;DHT22;41972;48.774;9.282;2022-12-11T14:58:20;-1.00;99.90
2158;DHT22;41972;48.774;9.282;2022-12-11T15:01:02;-1.00;99.90
2158;DHT22;41972;48.774;9.282;2022-12-11T15:03:31;-1.20;99.90
2158;DHT22;41972;48.774;9.282;2022-12-11T15:05:59;-1.10;99.90
2158;DHT22;41972;48.774;9.282;2022-12-11T15:08:26;-0.90;99.90
2158;DHT22;41972;48.774;9.282;2022-12-11T15:11:10;-0.90;99.90
2158;DHT22;41972;48.774;9.282;2022-12-11T15:13:52;-0.80;99.90
2158;DHT22;41972;48.774;9.282;2022-12-11T15:16:19;-0.70;99.90
2158;DHT22;41972;48.774;9.282;2022-12-11T15:18:51;-0.60;99.90
2158;DHT22;41972;48.774;9.282;2022-12-11T15:21:17;-0.40;99.90
2158;DHT22;41972;48.774;9.282;2022-12-11T15:23:54;-0.50;99.90
2158;DHT22;41972;48.774;9.282;2022-12-11T15:26:43;-0.40;99.90
2158;DHT22;41972;48.774;9.282;2022-12-11T15:29:39;-0.30;99.90
2158;DHT22;41972;48.774;9.282;2022-12-11T15:34:35;-0.60;99.90
2158;DHT22;41972;48.774;9.282;2022-12-11T15:37:20;-0.70;99.90
2158;DHT22;41972;48.774;9.282;2022-12-11T15:39:46;-0.70;99.90
2158;DHT22;41972;48.774;9.282;2022-12-11T15:42:23;-0.80;99.90
2158;DHT22;41972;48.774;9.282;2022-12-11T15:44:50;-0.90;99.90
2158;DHT22;41972;48.774;9.282;2022-12-11T15:47:22;-0.80;99.90
2158;DHT22;41972;48.774;9.282;2022-12-11T15:49:48;-0.80;99.90
2158;DHT22;41972;48.774;9.282;2022-12-11T15:52:13;-1.00;99.90
2158;DHT22;41972;48.774;9.282;2022-12-11T15:54:39;-1.00;99.90
2158;DHT22;41972;48.774;9.282;2022-12-11T15:57:06;-1.00;99.90
2158;DHT22;41972;48.774;9.282;2022-12-11T15:59:37;-1.00;99.90
2158;DHT22;41972;48.774;9.282;2022-12-11T16:02:03;-1.00;99.90
2158;DHT22;41972;48.774;9.282;2022-12-11T16:04:28;-0.90;99.90
2158;DHT22;41972;48.774;9.282;2022-12-11T16:06:54;-0.90;99.90
2158;DHT22;41972;48.774;9.282;2022-12-11T16:09:20;-0.90;99.90
2158;DHT22;41972;48.774;9.282;2022-12-11T16:11:46;-1.20;99.90
2158;DHT22;41972;48.774;9.282;2022-12-11T16:14:11;-1.20;99.90
2158;DHT22;41972;48.774;9.282;2022-12-11T16:16:37;-1.20;99.90
2158;DHT22;41972;48.774;9.282;2022-12-11T16:19:02;-1.00;99.90
2158;DHT22;41972;48.774;9.282;2022-12-11T16:21:28;-0.90;99.90
2158;DHT22;41972;48.774;9.282;2022-12-11T16:23:53;-0.80;99.90
2158;DHT22;41972;48.774;9.282;2022-12-11T16:26:19;-0.80;99.90
2158;DHT22;41972;48.774;9.282;2022-12-11T16:28:44;-0.80;99.90
2158;DHT22;41972;48.774;9.282;2022-12-11T16:31:13;-1.00;99.90
2158;DHT22;41972;48.774;9.282;2022-12-11T16:33:40;-0.90;99.90
2158;DHT22;41972;48.774;9.282;2022-12-11T16:36:12;-0.90;99.90
2158;DHT22;41972;48.774;9.282;2022-12-11T16:38:38;-1.00;99.90
2158;DHT22;41972;48.774;9.282;2022-12-11T16:41:03;-0.90;99.90
2158;DHT22;41972;48.774;9.282;2022-12-11T16:43:31;-1.10;99.90
2158;DHT22;41972;48.774;9.282;2022-12-11T16:45:56;-1.20;99.90
2158;DHT22;41972;48.774;9.282;2022-12-11T16:48:22;-1.20;99.90
2158;DHT22;41972;48.774;9.282;2022-12-11T16:50:48;-1.30;99.90
2158;DHT22;41972;48.774;9.282;2022-12-11T16:53:13;-1.40;99.90
2158;DHT22;41972;48.774;9.282;2022-12-11T16:55:40;-1.50;99.90
2158;DHT22;41972;48.774;9.282;2022-12-11T16:58:06;-1.40;99.90
2158;DHT22;41972;48.774;9.282;2022-12-11T17:00:32;-1.40;99.90
2158;DHT22;41972;48.774;9.282;2022-12-11T17:02:58;-1.40;99.90
2158;DHT22;41972;48.774;9.282;2022-12-11T17:05:23;-1.40;99.90
2158;DHT22;41972;48.774;9.282;2022-12-11T17:07:49;-1.60;99.90
2158;DHT22;41972;48.774;9.282;2022-12-11T17:10:15;-1.60;99.90
2158;DHT22;41972;48.774;9.282;2022-12-11T17:12:40;-1.80;99.90
2158;DHT22;41972;48.774;9.282;2022-12-11T17:15:06;-1.90;99.90
2158;DHT22;41972;48.774;9.282;2022-12-11T17:17:32;-1.90;99.90
2158;DHT22;41972;48.774;9.282;2022-12-11T17:19:57;-1.90;99.90
2158;DHT22;41972;48.774;9.282;2022-12-11T17:22:23;-2.00;99.90